Time;durP1;ratioP1;P1;durP2;ratioP2;P2;SDS_P1;SDS_P2;PMS_P1;PMS_P2;Temp;Humidity;BMP_temperature;BMP_pressure;BME280_temperature;BME280_humidity;BME280_pressure;Samples;Min_cycle;Max_cycle;Signal;HPM_P1;HPM_P2
2023/02/18 00:04:14;;;;;;;5.13;1.83;;;;;;;;;;10495948;28;20033;-77
2023/02/18 00:09:17;;;;;;;6.50;2.10;;;;;;;;;;10480767;28;20462;-76
2023/02/18 00:14:22;;;;;;;4.25;1.80;;;;;;;;;;10480512;28;20051;-79
2023/02/18 00:19:29;;;;;;;4.10;2.10;;;;;;;;;;10484260;28;20391;-78
2023/02/18 00:24:32;;;;;;;3.80;1.30;;;;;;;;;;10478172;28;20114;-79
2023/02/18 00:29:35;;;;;;;5.80;1.55;;;;;;;;;;10481854;28;20159;-78
2023/02/18 00:34:37;;;;;;;2.85;1.95;;;;;;;;;;10487094;28;20044;-79
2023/02/18 00:39:41;;;;;;;4.85;1.50;;;;;;;;;;10482685;28;20123;-79
2023/02/18 00:44:44;;;;;;;4.28;1.77;;;;;;;;;;10478625;28;20041;-77
2023/02/18 00:49:46;;;;;;;4.05;1.63;;;;;;;;;;10483965;28;20241;-77
2023/02/18 00:54:50;;;;;;;5.50;1.80;;;;;;;;;;10481265;28;20043;-76
2023/02/18 00:59:53;;;;;;;2.97;1.70;;;;;;;;;;10464986;28;20040;-76
2023/02/18 01:04:56;;;;;;;2.17;1.13;;;;;;;;;;10479482;28;20060;-75
2023/02/18 01:10:00;;;;;;;2.08;1.60;;;;;;;;;;10477744;28;20498;-79
2023/02/18 01:15:02;;;;;;;;;;;;;;;;;;10489995;28;20078;-80
2023/02/18 01:20:05;;;;;;;2.17;1.30;;;;;;;;;;10486357;28;19985;-78
2023/02/18 01:25:10;;;;;;;1.83;0.90;;;;;;;;;;10482938;28;20040;-78
2023/02/18 01:30:16;;;;;;;4.07;1.70;;;;;;;;;;10479199;28;20251;-77
2023/02/18 01:35:19;;;;;;;2.35;1.10;;;;;;;;;;10479538;28;20045;-78
2023/02/18 01:40:25;;;;;;;1.30;0.93;;;;;;;;;;10485264;28;20123;-79
2023/02/18 01:45:40;;;;;;;2.75;1.52;;;;;;;;;;10479730;28;20070;-78
2023/02/18 01:50:44;;;;;;;4.95;1.40;;;;;;;;;;10479773;28;20502;-77
2023/02/18 01:55:48;;;;;;;3.00;1.52;;;;;;;;;;10462840;28;20049;-78
2023/02/18 02:00:50;;;;;;;;;;;;;;;;;;10482537;28;20036;-78
2023/02/18 02:05:53;;;;;;;4.63;1.70;;;;;;;;;;10475707;28;20016;-78
2023/02/18 02:11:02;;;;;;;2.88;1.70;;;;;;;;;;10478970;28;20221;-77
2023/02/18 02:16:09;;;;;;;1.60;0.90;;;;;;;;;;10480117;28;20154;-78
2023/02/18 02:21:27;;;;;;;4.32;2.08;;;;;;;;;;10471823;28;20055;-78
2023/02/18 02:26:47;;;;;;;3.97;1.63;;;;;;;;;;10465003;28;20087;-78
2023/02/18 02:32:05;;;;;;;2.17;1.55;;;;;;;;;;10490271;28;20066;-78
2023/02/18 02:37:12;;;;;;;3.88;2.00;;;;;;;;;;10484176;28;20052;-78
2023/02/18 02:42:19;;;;;;;2.53;1.48;;;;;;;;;;10487111;28;20056;-77
2023/02/18 02:47:26;;;;;;;2.55;1.38;;;;;;;;;;10504378;28;20037;-77
2023/02/18 02:52:31;;;;;;;3.42;1.20;;;;;;;;;;10485120;28;20061;-78
2023/02/18 02:57:46;;;;;;;2.67;1.52;;;;;;;;;;10479800;28;20362;-78
2023/02/18 03:02:59;;;;;;;2.42;1.63;;;;;;;;;;10486366;28;20048;-77
2023/02/18 03:08:11;;;;;;;4.22;1.42;;;;;;;;;;10490732;28;20041;-77
2023/02/18 03:13:18;;;;;;;2.53;1.52;;;;;;;;;;10490531;28;20059;-77
2023/02/18 03:18:26;;;;;;;2.33;1.17;;;;;;;;;;10485055;28;20039;-78
2023/02/18 03:23:33;;;;;;;2.97;1.15;;;;;;;;;;10485808;28;20120;-78
2023/02/18 03:28:35;;;;;;;2.97;1.10;;;;;;;;;;10478098;28;20071;-78
2023/02/18 03:33:40;;;;;;;1.10;0.98;;;;;;;;;;10483948;28;20080;-78
2023/02/18 03:38:45;;;;;;;1.33;0.85;;;;;;;;;;10483358;28;20040;-78
2023/02/18 03:43:50;;;;;;;2.55;1.60;;;;;;;;;;10483762;28;20048;-77
2023/02/18 03:48:53;;;;;;;1.20;1.02;;;;;;;;;;10476766;28;20083;-77
2023/02/18 03:53:57;;;;;;;1.38;0.90;;;;;;;;;;10485014;28;20036;-77
2023/02/18 03:58:59;;;;;;;;;;;;;;;;;;10482050;28;20044;-77
2023/02/18 04:04:02;;;;;;;2.73;1.40;;;;;;;;;;10482072;28;19958;-77
2023/02/18 04:09:07;;;;;;;2.45;1.58;;;;;;;;;;10485473;28;20257;-77
2023/02/18 04:14:13;;;;;;;1.77;1.17;;;;;;;;;;10487534;28;20446;-77
2023/02/18 04:19:15;;;;;;;1.95;1.17;;;;;;;;;;10483221;28;20127;-76
2023/02/18 04:24:19;;;;;;;2.80;1.27;;;;;;;;;;10462245;28;20075;-79
2023/02/18 04:29:21;;;;;;;;;;;;;;;;;;10484827;28;20518;-77
2023/02/18 04:34:24;;;;;;;3.20;1.23;;;;;;;;;;10484124;28;20011;-78
2023/02/18 04:39:28;;;;;;;1.75;1.10;;;;;;;;;;10480365;28;20089;-77
2023/02/18 04:44:31;;;;;;;2.80;1.50;;;;;;;;;;10482548;28;20584;-77
2023/02/18 04:49:33;;;;;;;1.90;1.10;;;;;;;;;;10482987;28;20041;-77
2023/02/18 04:54:38;;;;;;;3.60;1.13;;;;;;;;;;10480585;28;20048;-77
2023/02/18 04:59:40;;;;;;;;;;;;;;;;;;10483076;28;20055;-77
2023/02/18 05:04:43;;;;;;;2.67;1.25;;;;;;;;;;10480499;28;19924;-77
2023/02/18 05:09:47;;;;;;;4.40;1.15;;;;;;;;;;10483297;28;20100;-77
2023/02/18 05:14:49;;;;;;;;;;;;;;;;;;10483516;28;20056;-77
2023/02/18 05:19:52;;;;;;;3.22;1.30;;;;;;;;;;10479348;28;20339;-77
2023/02/18 05:24:56;;;;;;;1.00;0.88;;;;;;;;;;10479690;28;20029;-77
2023/02/18 05:29:58;;;;;;;1.63;1.08;;;;;;;;;;10482867;28;20047;-78
2023/02/18 05:35:01;;;;;;;1.00;0.80;;;;;;;;;;10482755;28;20196;-78
2023/02/18 05:40:06;;;;;;;2.75;1.00;;;;;;;;;;10478618;28;20493;-78
2023/02/18 05:45:09;;;;;;;3.08;0.93;;;;;;;;;;10477802;28;20056;-78
2023/02/18 05:50:12;;;;;;;0.95;0.47;;;;;;;;;;10477459;28;20147;-78
2023/02/18 05:55:16;;;;;;;1.38;0.60;;;;;;;;;;10482925;28;20078;-78
2023/02/18 06:00:18;;;;;;;;;;;;;;;;;;10484439;28;20040;-78
2023/02/18 06:05:21;;;;;;;0.85;0.52;;;;;;;;;;10485659;28;19932;-77
2023/02/18 06:10:24;;;;;;;0.57;0.50;;;;;;;;;;10491207;28;20040;-78
2023/02/18 06:15:27;;;;;;;0.90;0.43;;;;;;;;;;10489546;28;20127;-77
2023/02/18 06:20:29;;;;;;;0.75;0.60;;;;;;;;;;10472821;28;20512;-77
2023/02/18 06:25:33;;;;;;;0.60;0.40;;;;;;;;;;10488511;28;20481;-78
2023/02/18 06:30:36;;;;;;;;;;;;;;;;;;10488028;28;20094;-77
2023/02/18 06:35:39;;;;;;;0.65;0.60;;;;;;;;;;10481740;28;19920;-78
2023/02/18 06:40:42;;;;;;;2.95;0.90;;;;;;;;;;10488908;28;20044;-78
2023/02/18 06:45:45;;;;;;;0.40;0.40;;;;;;;;;;10485551;28;20043;-78
2023/02/18 06:50:48;;;;;;;1.42;0.65;;;;;;;;;;10492648;28;20040;-77
2023/02/18 06:55:52;;;;;;;0.90;0.60;;;;;;;;;;10487023;28;20473;-78
2023/02/18 07:00:55;;;;;;;0.50;0.50;;;;;;;;;;10498043;28;20028;-78
2023/02/18 07:05:57;;;;;;;0.77;0.50;;;;;;;;;;10482461;28;20105;-79
2023/02/18 07:11:01;;;;;;;0.88;0.60;;;;;;;;;;10483163;28;20055;-77
2023/02/18 07:16:04;;;;;;;1.17;0.50;;;;;;;;;;10489494;28;20132;-78
2023/02/18 07:21:07;;;;;;;0.75;0.47;;;;;;;;;;10487359;28;20047;-78
2023/02/18 07:26:12;;;;;;;0.63;0.45;;;;;;;;;;10486846;28;20045;-78
2023/02/18 07:31:14;;;;;;;1.15;0.60;;;;;;;;;;10485628;28;20051;-78
2023/02/18 07:36:17;;;;;;;0.50;0.50;;;;;;;;;;10489076;28;20040;-78
2023/02/18 07:41:22;;;;;;;0.40;0.40;;;;;;;;;;10484443;28;20502;-77
2023/02/18 07:46:24;;;;;;;0.68;0.50;;;;;;;;;;10481565;28;20945;-77
2023/02/18 07:51:27;;;;;;;0.50;0.30;;;;;;;;;;10483688;28;20048;-77
2023/02/18 07:56:31;;;;;;;1.38;0.50;;;;;;;;;;10480767;28;20040;-78
2023/02/18 08:01:33;;;;;;;;;;;;;;;;;;10482756;28;20052;-78
2023/02/18 08:06:37;;;;;;;1.05;0.55;;;;;;;;;;10481311;28;19924;-80
2023/02/18 08:11:40;;;;;;;;;;;;;;;;;;10484393;28;20039;-80
2023/02/18 08:16:43;;;;;;;0.60;0.60;;;;;;;;;;10482600;28;20059;-79
2023/02/18 08:21:46;;;;;;;0.85;0.85;;;;;;;;;;10484297;28;20095;-77
2023/02/18 08:26:49;;;;;;;0.50;0.50;;;;;;;;;;10482423;28;20097;-78
2023/02/18 08:32:03;;;;;;;1.33;1.00;;;;;;;;;;10484412;28;20044;-78
2023/02/18 08:37:06;;;;;;;0.88;0.70;;;;;;;;;;10483022;28;20048;-78
2023/02/18 08:42:08;;;;;;;0.60;0.60;;;;;;;;;;10485345;28;20052;-77
2023/02/18 08:47:12;;;;;;;1.20;0.80;;;;;;;;;;10483003;28;20048;-76
2023/02/18 08:52:36;;;;;;;1.02;0.57;;;;;;;;;;10472323;28;20041;-79
2023/02/18 08:57:38;;;;;;;1.70;0.65;;;;;;;;;;10474837;28;20395;-78
2023/02/18 09:02:42;;;;;;;1.42;0.77;;;;;;;;;;10476555;28;20127;-78
2023/02/18 09:07:45;;;;;;;1.40;0.50;;;;;;;;;;10479617;28;20043;-79
2023/02/18 09:12:47;;;;;;;0.60;0.60;;;;;;;;;;10477881;28;20044;-79
2023/02/18 09:17:51;;;;;;;0.77;0.70;;;;;;;;;;10477068;28;20506;-79
2023/02/18 09:22:54;;;;;;;1.00;1.00;;;;;;;;;;10478730;28;20048;-79
2023/02/18 09:27:56;;;;;;;2.50;1.13;;;;;;;;;;10483610;28;20044;-79
2023/02/18 09:33:00;;;;;;;0.90;0.63;;;;;;;;;;10459856;28;20057;-78
2023/02/18 09:38:03;;;;;;;1.25;0.90;;;;;;;;;;10476237;28;20307;-78
2023/02/18 09:43:06;;;;;;;1.88;0.82;;;;;;;;;;10485110;28;20129;-78
2023/02/18 09:48:11;;;;;;;1.83;0.70;;;;;;;;;;10486303;28;20113;-78
2023/02/18 09:53:21;;;;;;;4.88;1.67;;;;;;;;;;10482040;28;20048;-78
2023/02/18 09:58:26;;;;;;;0.90;0.90;;;;;;;;;;10505509;28;20121;-79
2023/02/18 10:03:30;;;;;;;2.17;1.23;;;;;;;;;;10487211;28;20040;-79
2023/02/18 10:08:34;;;;;;;1.63;0.90;;;;;;;;;;10485029;28;20032;-79
2023/02/18 10:13:38;;;;;;;1.85;1.40;;;;;;;;;;10482358;28;20083;-79
2023/02/18 10:18:44;;;;;;;1.30;1.10;;;;;;;;;;10480621;28;20071;-79
2023/02/18 10:23:53;;;;;;;0.80;0.80;;;;;;;;;;10479579;28;20143;-80
2023/02/18 10:28:56;;;;;;;1.23;1.13;;;;;;;;;;10477880;28;20052;-80
2023/02/18 10:34:06;;;;;;;2.45;1.00;;;;;;;;;;10479724;28;20036;-80
2023/02/18 10:39:16;;;;;;;1.80;0.90;;;;;;;;;;10480130;28;20048;-79
2023/02/18 10:44:25;;;;;;;1.98;1.10;;;;;;;;;;10483446;28;20047;-80
2023/02/18 10:49:35;;;;;;;1.13;0.85;;;;;;;;;;10475736;28;20055;-81
2023/02/18 10:54:52;;;;;;;0.93;0.93;;;;;;;;;;10495699;28;20041;-79
2023/02/18 10:59:56;;;;;;;1.55;1.20;;;;;;;;;;10483089;28;20422;-81
2023/02/18 11:05:05;;;;;;;2.15;1.35;;;;;;;;;;10487182;28;20048;-80
2023/02/18 11:10:14;;;;;;;1.20;1.10;;;;;;;;;;10486295;28;20122;-79
2023/02/18 11:15:18;;;;;;;1.50;1.20;;;;;;;;;;10490322;28;20114;-80
2023/02/18 11:20:24;;;;;;;1.20;1.10;;;;;;;;;;10488617;28;20102;-81
2023/02/18 11:25:31;;;;;;;1.30;1.20;;;;;;;;;;10493625;28;20482;-80
2023/02/18 11:30:36;;;;;;;9.45;1.50;;;;;;;;;;10494027;28;20066;-80
2023/02/18 11:35:40;;;;;;;1.10;1.00;;;;;;;;;;10494013;28;20076;-81
2023/02/18 11:40:42;;;;;;;1.20;1.10;;;;;;;;;;10494784;28;20533;-81
2023/02/18 11:45:45;;;;;;;2.50;0.70;;;;;;;;;;10492956;28;20453;-81
2023/02/18 11:50:52;;;;;;;0.80;0.80;;;;;;;;;;10477077;28;20040;-80
2023/02/18 11:55:55;;;;;;;0.52;0.52;;;;;;;;;;10493828;28;20041;-82
2023/02/18 12:01:00;;;;;;;0.90;0.60;;;;;;;;;;10493030;28;20444;-80
2023/02/18 12:06:06;;;;;;;1.80;0.88;;;;;;;;;;10480556;28;20062;-80
2023/02/18 12:11:12;;;;;;;1.48;0.93;;;;;;;;;;10508130;28;20048;-77
2023/02/18 12:16:21;;;;;;;0.75;0.65;;;;;;;;;;10488901;28;20041;-78
2023/02/18 12:21:36;;;;;;;2.08;0.90;;;;;;;;;;10485897;28;20041;-80
2023/02/18 12:26:46;;;;;;;2.08;0.90;;;;;;;;;;10489222;28;20406;-80
2023/02/18 12:32:00;;;;;;;1.52;0.75;;;;;;;;;;10489797;28;20041;-80
2023/02/18 12:37:09;;;;;;;1.35;0.80;;;;;;;;;;10487623;28;20060;-80
2023/02/18 12:42:24;;;;;;;0.57;0.52;;;;;;;;;;10470626;28;20094;-81
2023/02/18 12:47:30;;;;;;;0.73;0.60;;;;;;;;;;10463796;28;20047;-80
2023/02/18 12:52:40;;;;;;;0.85;0.60;;;;;;;;;;10474474;28;21237;-81
2023/02/18 12:57:46;;;;;;;0.90;0.80;;;;;;;;;;10481579;28;20110;-82
2023/02/18 13:03:03;;;;;;;1.20;0.70;;;;;;;;;;10478096;28;20133;-82
2023/02/18 13:08:17;;;;;;;1.00;0.90;;;;;;;;;;10484426;28;20028;-79
2023/02/18 13:13:19;;;;;;;;;;;;;;;;;;10482141;28;20039;-79
2023/02/18 13:18:24;;;;;;;0.93;0.93;;;;;;;;;;10478439;28;19924;-80
2023/02/18 13:23:31;;;;;;;3.70;1.25;;;;;;;;;;10484089;28;20086;-79
2023/02/18 13:28:38;;;;;;;1.15;1.05;;;;;;;;;;10480769;28;20497;-80
2023/02/18 13:33:44;;;;;;;0.90;0.90;;;;;;;;;;10473922;28;20051;-80
2023/02/18 13:38:54;;;;;;;0.90;0.90;;;;;;;;;;10481625;28;20115;-80
2023/02/18 13:43:57;;;;;;;1.05;0.68;;;;;;;;;;10483221;28;20040;-81
2023/02/18 13:49:05;;;;;;;0.77;0.63;;;;;;;;;;10473471;28;20086;-80
2023/02/18 13:54:16;;;;;;;1.17;0.80;;;;;;;;;;10473022;28;20040;-81
2023/02/18 13:59:20;;;;;;;1.48;0.75;;;;;;;;;;10445422;28;20452;-80
2023/02/18 14:04:34;;;;;;;0.60;0.60;;;;;;;;;;10477741;28;20930;-80
2023/02/18 14:09:40;;;;;;;2.42;0.70;;;;;;;;;;10482103;28;20119;-80
2023/02/18 14:14:44;;;;;;;2.20;0.70;;;;;;;;;;10474170;28;20101;-80
2023/02/18 14:19:53;;;;;;;3.45;0.85;;;;;;;;;;10482209;28;20032;-79
2023/02/18 14:25:16;;;;;;;1.65;0.80;;;;;;;;;;10482921;28;20048;-80
2023/02/18 14:30:19;;;;;;;1.80;0.80;;;;;;;;;;10468686;28;20433;-79
2023/02/18 14:35:22;;;;;;;;;;;;;;;;;;10484980;28;20433;-81
2023/02/18 14:40:33;;;;;;;1.65;0.73;;;;;;;;;;10485832;28;19920;-79
2023/02/18 14:45:47;;;;;;;1.40;1.00;;;;;;;;;;10485025;28;20532;-79
2023/02/18 14:50:51;;;;;;;3.30;0.80;;;;;;;;;;10488983;28;20120;-81
2023/02/18 14:55:59;;;;;;;1.00;0.90;;;;;;;;;;10492633;28;20128;-79
2023/02/18 15:01:06;;;;;;;2.58;0.93;;;;;;;;;;10489343;28;20482;-80
2023/02/18 15:06:22;;;;;;;1.30;0.90;;;;;;;;;;10483638;28;23083;-80
2023/02/18 15:11:29;;;;;;;0.93;0.70;;;;;;;;;;10486407;28;20539;-80
2023/02/18 15:16:33;;;;;;;1.48;0.60;;;;;;;;;;10483070;28;20056;-80
2023/02/18 15:21:39;;;;;;;0.80;0.70;;;;;;;;;;10487991;28;20044;-80
2023/02/18 15:26:45;;;;;;;2.10;0.60;;;;;;;;;;10486516;28;20036;-80
2023/02/18 15:31:48;;;;;;;0.85;0.73;;;;;;;;;;10483221;28;20039;-78
2023/02/18 15:36:52;;;;;;;1.27;0.40;;;;;;;;;;10483758;28;20064;-81
2023/02/18 15:41:58;;;;;;;2.13;0.70;;;;;;;;;;10482878;28;20044;-79
2023/02/18 15:47:01;;;;;;;2.83;0.55;;;;;;;;;;10484046;28;20045;-80
2023/02/18 15:52:05;;;;;;;0.43;0.43;;;;;;;;;;10485008;28;20048;-80
2023/02/18 15:57:12;;;;;;;0.80;0.70;;;;;;;;;;10487966;28;21320;-80
2023/02/18 16:02:17;;;;;;;0.40;0.40;;;;;;;;;;10481353;28;20090;-79
2023/02/18 16:07:22;;;;;;;0.57;0.57;;;;;;;;;;10486024;28;20676;-78
2023/02/18 16:12:28;;;;;;;0.77;0.52;;;;;;;;;;10485608;28;20033;-78
2023/02/18 16:17:31;;;;;;;1.27;0.70;;;;;;;;;;10480548;28;20048;-79
2023/02/18 16:22:36;;;;;;;1.33;0.73;;;;;;;;;;10481173;28;20126;-78
2023/02/18 16:27:48;;;;;;;0.68;0.60;;;;;;;;;;10476138;28;20036;-78
2023/02/18 16:32:51;;;;;;;2.08;0.60;;;;;;;;;;10483920;28;20497;-79
2023/02/18 16:37:56;;;;;;;1.38;0.80;;;;;;;;;;10483450;28;20098;-79
2023/02/18 16:43:01;;;;;;;2.85;0.70;;;;;;;;;;10477590;28;20541;-79
2023/02/18 16:48:04;;;;;;;1.25;0.70;;;;;;;;;;10485697;28;20470;-80
2023/02/18 16:53:07;;;;;;;0.90;0.70;;;;;;;;;;10478253;28;20041;-79
2023/02/18 16:58:11;;;;;;;1.77;1.00;;;;;;;;;;10481786;28;20049;-80
2023/02/18 17:03:13;;;;;;;;;;;;;;;;;;10469567;28;20049;-80
2023/02/18 17:08:18;;;;;;;1.55;0.82;;;;;;;;;;10477258;28;20335;-79
2023/02/18 17:13:23;;;;;;;0.82;0.80;;;;;;;;;;10483370;28;20095;-80
2023/02/18 17:18:26;;;;;;;2.60;0.80;;;;;;;;;;10484125;28;20040;-81
2023/02/18 17:23:29;;;;;;;2.30;0.80;;;;;;;;;;10482937;28;20040;-80
2023/02/18 17:28:33;;;;;;;1.60;0.57;;;;;;;;;;10478640;28;20032;-80
2023/02/18 17:33:35;;;;;;;;;;;;;;;;;;10486016;28;20060;-81
2023/02/18 17:38:38;;;;;;;0.77;0.60;;;;;;;;;;10489652;28;19931;-81
2023/02/18 17:43:42;;;;;;;2.00;0.80;;;;;;;;;;10464674;28;20094;-81
2023/02/18 17:48:45;;;;;;;1.30;0.63;;;;;;;;;;10487622;28;20044;-80
2023/02/18 17:53:48;;;;;;;1.03;0.70;;;;;;;;;;10480311;28;20052;-80
2023/02/18 17:58:52;;;;;;;1.40;0.88;;;;;;;;;;10459379;28;20215;-81
2023/02/18 18:03:54;;;;;;;1.65;0.50;;;;;;;;;;10484377;28;20086;-79
2023/02/18 18:08:57;;;;;;;0.52;0.52;;;;;;;;;;10492091;28;20047;-80
2023/02/18 18:14:01;;;;;;;2.47;0.90;;;;;;;;;;10485132;28;20044;-79
2023/02/18 18:19:03;;;;;;;;;;;;;;;;;;10491244;28;20051;-79
2023/02/18 18:24:06;;;;;;;1.83;1.08;;;;;;;;;;10499553;28;19920;-79
2023/02/18 18:29:10;;;;;;;1.00;0.70;;;;;;;;;;10499275;28;20048;-79
2023/02/18 18:34:15;;;;;;;1.40;0.90;;;;;;;;;;10504393;28;20055;-80
2023/02/18 18:39:18;;;;;;;;;;;;;;;;;;10482631;28;20045;-80
2023/02/18 18:44:22;;;;;;;1.67;1.02;;;;;;;;;;10504566;28;20308;-80
2023/02/18 18:49:24;;;;;;;1.05;0.80;;;;;;;;;;10466695;28;20045;-80
2023/02/18 18:54:27;;;;;;;0.60;0.60;;;;;;;;;;10490002;28;20048;-80
2023/02/18 18:59:31;;;;;;;1.98;1.30;;;;;;;;;;10493954;28;20045;-80
2023/02/18 19:04:33;;;;;;;;;;;;;;;;;;10482197;28;20040;-79
2023/02/18 19:09:36;;;;;;;1.13;0.93;;;;;;;;;;10484676;28;19932;-81
2023/02/18 19:14:40;;;;;;;2.70;1.10;;;;;;;;;;10490901;28;20102;-80
2023/02/18 19:19:43;;;;;;;1.02;0.75;;;;;;;;;;10487546;28;20033;-80
2023/02/18 19:24:45;;;;;;;2.33;1.07;;;;;;;;;;10489470;28;20037;-80
2023/02/18 19:29:53;;;;;;;1.83;1.05;;;;;;;;;;10474777;28;20052;-81
2023/02/18 19:34:55;;;;;;;1.35;0.90;;;;;;;;;;10489987;28;20047;-81
2023/02/18 19:39:58;;;;;;;2.03;1.10;;;;;;;;;;10490024;28;20047;-80
2023/02/18 19:45:01;;;;;;;1.83;1.10;;;;;;;;;;10486224;28;20055;-80
2023/02/18 19:50:04;;;;;;;1.90;1.15;;;;;;;;;;10487761;28;20079;-80
2023/02/18 19:55:07;;;;;;;5.10;1.15;;;;;;;;;;10492075;28;20044;-80
2023/02/18 20:00:13;;;;;;;1.80;0.90;;;;;;;;;;10487895;28;20052;-79
2023/02/18 20:05:16;;;;;;;1.17;0.73;;;;;;;;;;10486409;28;20040;-80
2023/02/18 20:10:19;;;;;;;1.83;1.15;;;;;;;;;;10487138;28;20044;-80
2023/02/18 20:15:24;;;;;;;1.73;1.15;;;;;;;;;;10485859;28;20044;-80
2023/02/18 20:20:27;;;;;;;2.13;1.02;;;;;;;;;;10490607;28;20040;-79
2023/02/18 20:25:30;;;;;;;2.72;1.05;;;;;;;;;;10490363;28;20040;-79
2023/02/18 20:30:34;;;;;;;2.07;1.27;;;;;;;;;;10483193;28;20041;-79
2023/02/18 20:35:36;;;;;;;1.80;0.90;;;;;;;;;;10472003;28;20153;-79
2023/02/18 20:40:39;;;;;;;1.70;1.10;;;;;;;;;;10487508;28;20040;-79
2023/02/18 20:45:43;;;;;;;2.38;1.02;;;;;;;;;;10482809;28;20473;-79
2023/02/18 20:50:46;;;;;;;2.60;0.93;;;;;;;;;;10487368;28;20523;-78
2023/02/18 20:55:49;;;;;;;2.20;0.77;;;;;;;;;;10486225;28;20074;-79
2023/02/18 21:00:57;;;;;;;4.63;1.10;;;;;;;;;;10484566;28;20048;-79
2023/02/18 21:06:00;;;;;;;1.33;0.98;;;;;;;;;;10486564;28;20493;-79
2023/02/18 21:11:04;;;;;;;1.08;0.70;;;;;;;;;;10483695;28;20097;-79
2023/02/18 21:16:08;;;;;;;1.40;1.10;;;;;;;;;;10483737;28;20056;-80
2023/02/18 21:21:12;;;;;;;3.15;1.27;;;;;;;;;;10484958;28;20052;-79
2023/02/18 21:26:16;;;;;;;1.98;0.73;;;;;;;;;;10488755;28;20068;-79
2023/02/18 21:31:21;;;;;;;0.68;0.47;;;;;;;;;;10488448;28;20049;-80
2023/02/18 21:36:24;;;;;;;1.80;1.10;;;;;;;;;;10479392;28;20505;-79
2023/02/18 21:41:26;;;;;;;1.05;0.80;;;;;;;;;;10485105;28;20070;-78
2023/02/18 21:46:31;;;;;;;1.27;0.80;;;;;;;;;;10476144;28;20098;-79
2023/02/18 21:56:57;;;;;;;0.77;0.60;;;;;;;;;;10475829;28;20120;-79
2023/02/18 22:02:01;;;;;;;0.60;0.60;;;;;;;;;;10477202;28;20059;-78
2023/02/18 22:07:03;;;;;;;;;;;;;;;;;;10483069;28;20071;-78
2023/02/18 22:12:06;;;;;;;2.80;0.82;;;;;;;;;;10479569;28;20043;-77
2023/02/18 22:17:10;;;;;;;1.80;1.15;;;;;;;;;;10472600;28;20060;-78
2023/02/18 22:22:13;;;;;;;2.00;0.88;;;;;;;;;;10478601;28;20052;-78
2023/02/18 22:27:18;;;;;;;1.85;1.13;;;;;;;;;;10476872;28;20053;-78
2023/02/18 22:32:22;;;;;;;3.35;1.00;;;;;;;;;;10478902;28;20041;-78
2023/02/18 22:37:25;;;;;;;2.10;1.00;;;;;;;;;;10480232;28;20408;-78
2023/02/18 22:42:28;;;;;;;2.35;1.00;;;;;;;;;;10480753;28;20060;-79
2023/02/18 22:47:31;;;;;;;2.15;1.20;;;;;;;;;;10482611;28;20581;-80
2023/02/18 22:52:34;;;;;;;2.70;1.10;;;;;;;;;;10485316;28;20056;-78
2023/02/18 22:57:37;;;;;;;1.30;0.90;;;;;;;;;;10483838;28;20119;-79
2023/02/18 23:02:40;;;;;;;4.40;1.30;;;;;;;;;;10490901;28;20032;-79
2023/02/18 23:07:43;;;;;;;3.05;1.00;;;;;;;;;;10493759;28;20059;-79
2023/02/18 23:12:45;;;;;;;3.10;1.10;;;;;;;;;;10493589;28;20490;-78
2023/02/18 23:17:50;;;;;;;2.45;1.05;;;;;;;;;;10484525;28;20032;-78
2023/02/18 23:22:53;;;;;;;2.55;1.30;;;;;;;;;;10491481;28;20036;-78
2023/02/18 23:27:55;;;;;;;2.00;1.08;;;;;;;;;;10485093;28;20037;-78
2023/02/18 23:32:59;;;;;;;2.35;1.17;;;;;;;;;;10489611;28;20036;-79
2023/02/18 23:38:04;;;;;;;;;;;;;;;;;;10491932;28;20052;-78
2023/02/18 23:43:07;;;;;;;0.85;0.70;;;;;;;;;;10483064;28;20336;-76
2023/02/18 23:48:11;;;;;;;1.50;1.15;;;;;;;;;;10475022;28;20112;-77
2023/02/18 23:53:13;;;;;;;1.50;0.93;;;;;;;;;;10481944;28;20079;-76
2023/02/18 23:58:16;;;;;;;1.98;1.25;;;;;;;;;;10483894;28;20113;-76
